sensor_id;sensor_type;location;lat;lon;timestamp;pressure;altitude;pressure_sealevel;temperature;humidity
24620;BME280;12763;55.802;37.404;2023-10-08T00:00:45;96182.22;;;8.91;nan
24620;BME280;12763;55.802;37.404;2023-10-08T00:03:13;96170.97;;;8.87;nan
24620;BME280;12763;55.802;37.404;2023-10-08T00:05:40;96190.09;;;8.68;nan
24620;BME280;12763;55.802;37.404;2023-10-08T00:08:07;96199.88;;;8.84;nan
24620;BME280;12763;55.802;37.404;2023-10-08T00:10:38;96206.69;;;8.58;nan
24620;BME280;12763;55.802;37.404;2023-10-08T00:13:09;96183.06;;;8.91;nan
24620;BME280;12763;55.802;37.404;2023-10-08T00:15:36;96179.16;;;8.92;nan
24620;BME280;12763;55.802;37.404;2023-10-08T00:18:03;96199.81;;;8.95;nan
24620;BME280;12763;55.802;37.404;2023-10-08T00:20:34;96207.06;;;8.75;nan
24620;BME280;12763;55.802;37.404;2023-10-08T00:23:10;96222.84;;;8.65;nan
24620;BME280;12763;55.802;37.404;2023-10-08T00:25:36;96185.09;;;8.75;nan
24620;BME280;12763;55.802;37.404;2023-10-08T00:28:08;96189.84;;;8.65;nan
24620;BME280;12763;55.802;37.404;2023-10-08T00:30:40;96186.09;;;8.56;nan
24620;BME280;12763;55.802;37.404;2023-10-08T00:33:08;96196.53;;;8.59;nan
24620;BME280;12763;55.802;37.404;2023-10-08T00:35:38;96170.56;;;8.75;nan
24620;BME280;12763;55.802;37.404;2023-10-08T00:38:06;96157.81;;;8.84;nan
24620;BME280;12763;55.802;37.404;2023-10-08T00:40:37;96173.53;;;8.78;nan
24620;BME280;12763;55.802;37.404;2023-10-08T00:43:05;96175.63;;;8.58;nan
24620;BME280;12763;55.802;37.404;2023-10-08T00:45:36;96197.88;;;8.61;nan
24620;BME280;12763;55.802;37.404;2023-10-08T00:48:10;96173.38;;;8.65;nan
24620;BME280;12763;55.802;37.404;2023-10-08T00:50:42;96171.88;;;8.44;nan
24620;BME280;12763;55.802;37.404;2023-10-08T00:53:10;96177.47;;;8.34;nan
24620;BME280;12763;55.802;37.404;2023-10-08T00:55:49;96189.97;;;8.50;nan
24620;BME280;12763;55.802;37.404;2023-10-08T00:58:30;96175.50;;;8.39;nan
24620;BME280;12763;55.802;37.404;2023-10-08T01:00:59;96178.44;;;8.53;nan
24620;BME280;12763;55.802;37.404;2023-10-08T01:03:26;96216.97;;;8.38;nan
24620;BME280;12763;55.802;37.404;2023-10-08T01:05:54;96174.84;;;8.52;nan
24620;BME280;12763;55.802;37.404;2023-10-08T01:08:20;96180.34;;;8.52;nan
24620;BME280;12763;55.802;37.404;2023-10-08T01:13:46;96203.38;;;8.61;nan
24620;BME280;12763;55.802;37.404;2023-10-08T01:16:12;96190.03;;;8.45;nan
24620;BME280;12763;55.802;37.404;2023-10-08T01:18:39;96195.72;;;8.53;nan
24620;BME280;12763;55.802;37.404;2023-10-08T01:21:09;96164.13;;;8.51;nan
24620;BME280;12763;55.802;37.404;2023-10-08T01:23:52;96197.41;;;8.49;nan
24620;BME280;12763;55.802;37.404;2023-10-08T01:26:20;96189.28;;;8.24;nan
24620;BME280;12763;55.802;37.404;2023-10-08T01:28:48;96208.44;;;8.44;nan
24620;BME280;12763;55.802;37.404;2023-10-08T01:31:14;96205.50;;;8.20;nan
24620;BME280;12763;55.802;37.404;2023-10-08T01:33:40;96185.75;;;8.18;nan
24620;BME280;12763;55.802;37.404;2023-10-08T01:36:15;96186.19;;;8.41;nan
24620;BME280;12763;55.802;37.404;2023-10-08T01:38:41;96179.97;;;8.25;nan
24620;BME280;12763;55.802;37.404;2023-10-08T01:41:10;96179.44;;;8.18;nan
24620;BME280;12763;55.802;37.404;2023-10-08T01:43:48;96186.78;;;8.33;nan
24620;BME280;12763;55.802;37.404;2023-10-08T01:46:15;96198.06;;;8.26;nan
24620;BME280;12763;55.802;37.404;2023-10-08T01:48:42;96184.22;;;8.46;nan
24620;BME280;12763;55.802;37.404;2023-10-08T01:51:10;96192.28;;;8.33;nan
24620;BME280;12763;55.802;37.404;2023-10-08T01:53:37;96199.53;;;8.13;nan
24620;BME280;12763;55.802;37.404;2023-10-08T01:56:07;96196.22;;;8.16;nan
24620;BME280;12763;55.802;37.404;2023-10-08T01:58:33;96185.28;;;8.01;nan
24620;BME280;12763;55.802;37.404;2023-10-08T02:01:01;96180.69;;;7.92;nan
24620;BME280;12763;55.802;37.404;2023-10-08T02:03:31;96197.19;;;7.82;nan
24620;BME280;12763;55.802;37.404;2023-10-08T02:05:57;96201.28;;;7.94;nan
24620;BME280;12763;55.802;37.404;2023-10-08T02:08:25;96205.44;;;7.82;nan
24620;BME280;12763;55.802;37.404;2023-10-08T02:10:55;96192.25;;;7.89;nan
24620;BME280;12763;55.802;37.404;2023-10-08T02:13:22;96200.84;;;7.67;nan
24620;BME280;12763;55.802;37.404;2023-10-08T02:15:52;96172.66;;;8.05;nan
24620;BME280;12763;55.802;37.404;2023-10-08T02:18:18;96177.22;;;7.71;nan
24620;BME280;12763;55.802;37.404;2023-10-08T02:20:45;96198.00;;;7.92;nan
24620;BME280;12763;55.802;37.404;2023-10-08T02:23:11;96183.09;;;8.08;nan
24620;BME280;12763;55.802;37.404;2023-10-08T02:25:40;96242.41;;;7.99;nan
24620;BME280;12763;55.802;37.404;2023-10-08T02:28:07;96204.50;;;8.01;nan
24620;BME280;12763;55.802;37.404;2023-10-08T02:30:42;96197.00;;;7.73;nan
24620;BME280;12763;55.802;37.404;2023-10-08T02:33:09;96196.97;;;7.68;nan
24620;BME280;12763;55.802;37.404;2023-10-08T02:35:41;96183.59;;;7.56;nan
24620;BME280;12763;55.802;37.404;2023-10-08T02:38:13;96205.19;;;7.78;nan
24620;BME280;12763;55.802;37.404;2023-10-08T02:40:42;96183.38;;;7.48;nan
24620;BME280;12763;55.802;37.404;2023-10-08T02:43:12;96205.84;;;7.45;nan
24620;BME280;12763;55.802;37.404;2023-10-08T02:45:40;96184.47;;;7.42;nan
24620;BME280;12763;55.802;37.404;2023-10-08T02:48:07;96204.66;;;7.71;nan
24620;BME280;12763;55.802;37.404;2023-10-08T02:50:39;96226.13;;;7.59;nan
24620;BME280;12763;55.802;37.404;2023-10-08T02:53:12;96165.75;;;7.59;nan
24620;BME280;12763;55.802;37.404;2023-10-08T02:55:43;96213.00;;;7.41;nan
24620;BME280;12763;55.802;37.404;2023-10-08T02:58:15;96179.53;;;7.39;nan
24620;BME280;12763;55.802;37.404;2023-10-08T03:00:42;96211.06;;;7.41;nan
24620;BME280;12763;55.802;37.404;2023-10-08T03:03:08;96183.66;;;7.36;nan
24620;BME280;12763;55.802;37.404;2023-10-08T03:05:46;96172.41;;;7.43;nan
24620;BME280;12763;55.802;37.404;2023-10-08T03:08:14;96179.84;;;7.27;nan
24620;BME280;12763;55.802;37.404;2023-10-08T03:10:45;96185.06;;;7.24;nan
24620;BME280;12763;55.802;37.404;2023-10-08T03:13:11;96200.44;;;7.15;nan
24620;BME280;12763;55.802;37.404;2023-10-08T03:15:42;96219.34;;;7.31;nan
24620;BME280;12763;55.802;37.404;2023-10-08T03:18:14;96167.56;;;6.99;nan
24620;BME280;12763;55.802;37.404;2023-10-08T03:20:41;96200.97;;;7.17;nan
24620;BME280;12763;55.802;37.404;2023-10-08T03:23:09;96189.47;;;7.15;nan
24620;BME280;12763;55.802;37.404;2023-10-08T03:25:53;96186.13;;;7.38;nan
24620;BME280;12763;55.802;37.404;2023-10-08T03:28:51;96167.25;;;7.21;nan
24620;BME280;12763;55.802;37.404;2023-10-08T03:31:24;96162.88;;;7.10;nan
24620;BME280;12763;55.802;37.404;2023-10-08T03:34:10;96186.97;;;7.28;nan
24620;BME280;12763;55.802;37.404;2023-10-08T03:36:41;96193.59;;;7.17;nan
24620;BME280;12763;55.802;37.404;2023-10-08T03:39:11;96180.97;;;7.11;nan
24620;BME280;12763;55.802;37.404;2023-10-08T03:41:43;96175.72;;;7.30;nan
24620;BME280;12763;55.802;37.404;2023-10-08T03:44:23;96172.69;;;7.36;nan
24620;BME280;12763;55.802;37.404;2023-10-08T03:46:51;96185.13;;;7.03;nan
24620;BME280;12763;55.802;37.404;2023-10-08T03:49:18;96181.81;;;7.12;nan
24620;BME280;12763;55.802;37.404;2023-10-08T03:51:47;96219.13;;;6.87;nan
24620;BME280;12763;55.802;37.404;2023-10-08T03:54:14;96168.94;;;7.12;nan
24620;BME280;12763;55.802;37.404;2023-10-08T03:56:41;96194.97;;;7.09;nan
24620;BME280;12763;55.802;37.404;2023-10-08T03:59:17;96205.94;;;6.94;nan
24620;BME280;12763;55.802;37.404;2023-10-08T04:02:02;96203.75;;;6.96;nan
24620;BME280;12763;55.802;37.404;2023-10-08T04:04:48;96183.69;;;7.21;nan
24620;BME280;12763;55.802;37.404;2023-10-08T04:07:22;96177.94;;;7.13;nan
24620;BME280;12763;55.802;37.404;2023-10-08T04:10:05;96180.75;;;6.97;nan
24620;BME280;12763;55.802;37.404;2023-10-08T04:12:34;96189.78;;;6.93;nan
24620;BME280;12763;55.802;37.404;2023-10-08T04:15:02;96162.63;;;7.01;nan
24620;BME280;12763;55.802;37.404;2023-10-08T04:17:35;96214.47;;;6.73;nan
24620;BME280;12763;55.802;37.404;2023-10-08T04:20:11;96216.63;;;6.96;nan
24620;BME280;12763;55.802;37.404;2023-10-08T04:22:56;96170.88;;;6.71;nan
24620;BME280;12763;55.802;37.404;2023-10-08T04:25:32;96170.34;;;6.84;nan
24620;BME280;12763;55.802;37.404;2023-10-08T04:27:59;96185.69;;;6.80;nan
24620;BME280;12763;55.802;37.404;2023-10-08T04:30:26;96169.53;;;6.79;nan
24620;BME280;12763;55.802;37.404;2023-10-08T04:33:03;96191.66;;;7.13;nan
24620;BME280;12763;55.802;37.404;2023-10-08T04:35:36;96171.94;;;7.05;nan
24620;BME280;12763;55.802;37.404;2023-10-08T04:38:06;96173.06;;;6.89;nan
24620;BME280;12763;55.802;37.404;2023-10-08T04:40:37;96182.91;;;7.05;nan
24620;BME280;12763;55.802;37.404;2023-10-08T04:43:29;96187.28;;;7.12;nan
24620;BME280;12763;55.802;37.404;2023-10-08T04:45:57;96210.91;;;6.62;nan
24620;BME280;12763;55.802;37.404;2023-10-08T04:48:25;96206.75;;;7.10;nan
24620;BME280;12763;55.802;37.404;2023-10-08T04:50:52;96183.19;;;6.94;nan
24620;BME280;12763;55.802;37.404;2023-10-08T04:53:31;96210.03;;;7.02;nan
24620;BME280;12763;55.802;37.404;2023-10-08T04:55:59;96202.69;;;6.87;nan
24620;BME280;12763;55.802;37.404;2023-10-08T04:58:33;96189.19;;;7.16;nan
24620;BME280;12763;55.802;37.404;2023-10-08T05:01:02;96193.91;;;6.95;nan
24620;BME280;12763;55.802;37.404;2023-10-08T05:03:54;96211.44;;;7.09;nan
24620;BME280;12763;55.802;37.404;2023-10-08T05:06:33;96211.44;;;6.74;nan
24620;BME280;12763;55.802;37.404;2023-10-08T05:09:09;96208.16;;;6.77;nan
24620;BME280;12763;55.802;37.404;2023-10-08T05:11:39;96204.88;;;6.80;nan
24620;BME280;12763;55.802;37.404;2023-10-08T05:14:24;96232.25;;;6.85;nan
24620;BME280;12763;55.802;37.404;2023-10-08T05:17:08;96207.03;;;7.14;nan
24620;BME280;12763;55.802;37.404;2023-10-08T05:19:38;96198.78;;;7.14;nan
24620;BME280;12763;55.802;37.404;2023-10-08T05:22:08;96192.78;;;7.12;nan
24620;BME280;12763;55.802;37.404;2023-10-08T05:24:47;96188.38;;;7.21;nan
24620;BME280;12763;55.802;37.404;2023-10-08T05:27:44;96202.09;;;7.21;nan
24620;BME280;12763;55.802;37.404;2023-10-08T05:30:22;96194.41;;;7.18;nan
24620;BME280;12763;55.802;37.404;2023-10-08T05:32:57;96211.91;;;7.27;nan
24620;BME280;12763;55.802;37.404;2023-10-08T05:35:30;96190.03;;;7.17;nan
24620;BME280;12763;55.802;37.404;2023-10-08T05:38:18;96186.47;;;7.11;nan
24620;BME280;12763;55.802;37.404;2023-10-08T05:41:00;96204.25;;;7.19;nan
24620;BME280;12763;55.802;37.404;2023-10-08T05:43:29;96207.25;;;7.27;nan
24620;BME280;12763;55.802;37.404;2023-10-08T05:46:15;96217.47;;;7.06;nan
24620;BME280;12763;55.802;37.404;2023-10-08T05:48:58;96215.50;;;7.27;nan
24620;BME280;12763;55.802;37.404;2023-10-08T05:51:30;96227.28;;;7.28;nan
24620;BME280;12763;55.802;37.404;2023-10-08T05:54:19;96212.41;;;7.49;nan
24620;BME280;12763;55.802;37.404;2023-10-08T05:57:00;96215.13;;;7.54;nan
24620;BME280;12763;55.802;37.404;2023-10-08T05:59:36;96261.31;;;7.32;nan
24620;BME280;12763;55.802;37.404;2023-10-08T06:02:23;96205.91;;;7.20;nan
24620;BME280;12763;55.802;37.404;2023-10-08T06:05:01;96214.66;;;7.42;nan
24620;BME280;12763;55.802;37.404;2023-10-08T06:07:44;96228.41;;;7.17;nan
24620;BME280;12763;55.802;37.404;2023-10-08T06:10:30;96225.69;;;7.06;nan
24620;BME280;12763;55.802;37.404;2023-10-08T06:13:03;96212.22;;;7.20;nan
24620;BME280;12763;55.802;37.404;2023-10-08T06:15:38;96258.81;;;7.10;nan
24620;BME280;12763;55.802;37.404;2023-10-08T06:18:10;96238.00;;;7.09;nan
24620;BME280;12763;55.802;37.404;2023-10-08T06:20:38;96235.00;;;6.90;nan
24620;BME280;12763;55.802;37.404;2023-10-08T06:23:13;96220.72;;;7.19;nan
24620;BME280;12763;55.802;37.404;2023-10-08T06:25:42;96246.22;;;7.14;nan
24620;BME280;12763;55.802;37.404;2023-10-08T06:30:40;96262.16;;;6.87;nan
24620;BME280;12763;55.802;37.404;2023-10-08T06:33:07;96221.53;;;7.19;nan
24620;BME280;12763;55.802;37.404;2023-10-08T06:35:33;96212.19;;;7.35;nan
24620;BME280;12763;55.802;37.404;2023-10-08T06:37:59;96249.22;;;7.33;nan
24620;BME280;12763;55.802;37.404;2023-10-08T06:40:27;96233.56;;;7.43;nan
24620;BME280;12763;55.802;37.404;2023-10-08T06:43:03;96242.88;;;7.47;nan
24620;BME280;12763;55.802;37.404;2023-10-08T06:45:36;96237.16;;;7.29;nan
24620;BME280;12763;55.802;37.404;2023-10-08T06:48:02;96233.06;;;7.16;nan
24620;BME280;12763;55.802;37.404;2023-10-08T06:50:35;96295.28;;;6.90;nan
24620;BME280;12763;55.802;37.404;2023-10-08T06:53:06;96242.94;;;7.12;nan
24620;BME280;12763;55.802;37.404;2023-10-08T06:55:34;96242.69;;;6.98;nan
24620;BME280;12763;55.802;37.404;2023-10-08T06:58:03;96247.28;;;7.38;nan
24620;BME280;12763;55.802;37.404;2023-10-08T07:00:37;96262.16;;;6.82;nan
24620;BME280;12763;55.802;37.404;2023-10-08T07:03:08;96262.13;;;6.77;nan
24620;BME280;12763;55.802;37.404;2023-10-08T07:05:37;96230.09;;;6.87;nan
24620;BME280;12763;55.802;37.404;2023-10-08T07:08:11;96316.66;;;6.78;nan
24620;BME280;12763;55.802;37.404;2023-10-08T07:10:40;96262.69;;;7.04;nan
24620;BME280;12763;55.802;37.404;2023-10-08T07:13:12;96259.94;;;7.09;nan
24620;BME280;12763;55.802;37.404;2023-10-08T07:15:46;96251.44;;;7.00;nan
24620;BME280;12763;55.802;37.404;2023-10-08T07:18:12;96241.00;;;7.13;nan
24620;BME280;12763;55.802;37.404;2023-10-08T07:20:47;96258.56;;;7.22;nan
24620;BME280;12763;55.802;37.404;2023-10-08T07:23:18;96256.38;;;7.14;nan
24620;BME280;12763;55.802;37.404;2023-10-08T07:25:46;96282.69;;;7.25;nan
24620;BME280;12763;55.802;37.404;2023-10-08T07:28:19;96268.16;;;7.14;nan
24620;BME280;12763;55.802;37.404;2023-10-08T07:30:46;96256.91;;;7.31;nan
24620;BME280;12763;55.802;37.404;2023-10-08T07:33:12;96256.34;;;7.34;nan
24620;BME280;12763;55.802;37.404;2023-10-08T07:35:47;96308.44;;;7.19;nan
24620;BME280;12763;55.802;37.404;2023-10-08T07:38:46;96267.91;;;7.21;nan
24620;BME280;12763;55.802;37.404;2023-10-08T07:41:13;96242.41;;;7.15;nan
24620;BME280;12763;55.802;37.404;2023-10-08T07:43:41;96271.44;;;6.96;nan
24620;BME280;12763;55.802;37.404;2023-10-08T07:46:12;96316.41;;;7.25;nan
24620;BME280;12763;55.802;37.404;2023-10-08T07:48:40;96284.63;;;6.74;nan
24620;BME280;12763;55.802;37.404;2023-10-08T07:51:09;96253.91;;;7.02;nan
24620;BME280;12763;55.802;37.404;2023-10-08T07:53:35;96259.94;;;6.99;nan
24620;BME280;12763;55.802;37.404;2023-10-08T07:56:05;96269.75;;;7.40;nan
24620;BME280;12763;55.802;37.404;2023-10-08T07:58:35;96265.69;;;7.23;nan
24620;BME280;12763;55.802;37.404;2023-10-08T08:01:08;96276.09;;;7.26;nan
24620;BME280;12763;55.802;37.404;2023-10-08T08:03:40;96276.34;;;7.29;nan
24620;BME280;12763;55.802;37.404;2023-10-08T08:06:11;96275.31;;;7.15;nan
24620;BME280;12763;55.802;37.404;2023-10-08T08:08:39;96267.81;;;7.61;nan
24620;BME280;12763;55.802;37.404;2023-10-08T08:11:06;96286.53;;;7.34;nan
24620;BME280;12763;55.802;37.404;2023-10-08T08:13:39;96319.97;;;7.26;nan
24620;BME280;12763;55.802;37.404;2023-10-08T08:16:08;96308.16;;;7.35;nan
24620;BME280;12763;55.802;37.404;2023-10-08T08:18:45;96282.94;;;7.38;nan
24620;BME280;12763;55.802;37.404;2023-10-08T08:21:12;96298.56;;;7.53;nan
24620;BME280;12763;55.802;37.404;2023-10-08T08:23:43;96360.81;;;7.07;nan
24620;BME280;12763;55.802;37.404;2023-10-08T08:26:16;96278.84;;;7.16;nan
24620;BME280;12763;55.802;37.404;2023-10-08T08:29:17;96305.16;;;7.27;nan
24620;BME280;12763;55.802;37.404;2023-10-08T08:31:43;96335.63;;;7.15;nan
24620;BME280;12763;55.802;37.404;2023-10-08T08:34:12;96320.53;;;7.43;nan
24620;BME280;12763;55.802;37.404;2023-10-08T08:36:45;96319.41;;;7.39;nan
24620;BME280;12763;55.802;37.404;2023-10-08T08:39:17;96352.31;;;7.44;nan
24620;BME280;12763;55.802;37.404;2023-10-08T08:42:03;96307.34;;;7.30;nan
24620;BME280;12763;55.802;37.404;2023-10-08T08:44:31;96363.84;;;7.51;nan
24620;BME280;12763;55.802;37.404;2023-10-08T08:46:59;96298.53;;;7.63;nan
24620;BME280;12763;55.802;37.404;2023-10-08T08:49:32;96341.34;;;7.49;nan
24620;BME280;12763;55.802;37.404;2023-10-08T08:52:03;96306.28;;;7.26;nan
24620;BME280;12763;55.802;37.404;2023-10-08T08:54:30;96353.41;;;7.33;nan
24620;BME280;12763;55.802;37.404;2023-10-08T08:57:03;96311.16;;;7.49;nan
24620;BME280;12763;55.802;37.404;2023-10-08T08:59:30;96417.81;;;6.95;nan
24620;BME280;12763;55.802;37.404;2023-10-08T09:02:00;96347.63;;;6.99;nan
24620;BME280;12763;55.802;37.404;2023-10-08T09:04:32;96326.56;;;7.20;nan
24620;BME280;12763;55.802;37.404;2023-10-08T09:07:03;96322.72;;;7.36;nan
24620;BME280;12763;55.802;37.404;2023-10-08T09:09:34;96336.94;;;7.63;nan
24620;BME280;12763;55.802;37.404;2023-10-08T09:12:01;96333.66;;;7.41;nan
24620;BME280;12763;55.802;37.404;2023-10-08T09:14:28;96330.41;;;7.34;nan
24620;BME280;12763;55.802;37.404;2023-10-08T09:17:00;96350.16;;;7.26;nan
24620;BME280;12763;55.802;37.404;2023-10-08T09:19:30;96334.50;;;7.46;nan
24620;BME280;12763;55.802;37.404;2023-10-08T09:22:08;96323.25;;;7.53;nan
24620;BME280;12763;55.802;37.404;2023-10-08T09:24:39;96323.19;;;7.68;nan
24620;BME280;12763;55.802;37.404;2023-10-08T09:27:06;96344.00;;;7.99;nan
24620;BME280;12763;55.802;37.404;2023-10-08T09:29:34;96328.97;;;7.72;nan
24620;BME280;12763;55.802;37.404;2023-10-08T09:32:08;96341.06;;;7.55;nan
24620;BME280;12763;55.802;37.404;2023-10-08T09:34:34;96321.91;;;7.20;nan
24620;BME280;12763;55.802;37.404;2023-10-08T09:37:01;96362.75;;;7.42;nan
24620;BME280;12763;55.802;37.404;2023-10-08T09:39:28;96360.56;;;7.29;nan
24620;BME280;12763;55.802;37.404;2023-10-08T09:42:03;96380.84;;;7.53;nan
24620;BME280;12763;55.802;37.404;2023-10-08T09:44:32;96338.03;;;7.67;nan
24620;BME280;12763;55.802;37.404;2023-10-08T09:47:06;96329.56;;;7.53;nan
24620;BME280;12763;55.802;37.404;2023-10-08T09:49:38;96327.03;;;7.77;nan
24620;BME280;12763;55.802;37.404;2023-10-08T09:52:08;96356.13;;;7.68;nan
24620;BME280;12763;55.802;37.404;2023-10-08T09:54:44;96383.88;;;7.46;nan
24620;BME280;12763;55.802;37.404;2023-10-08T09:57:11;96369.88;;;7.33;nan
24620;BME280;12763;55.802;37.404;2023-10-08T09:59:37;96360.28;;;7.25;nan
24620;BME280;12763;55.802;37.404;2023-10-08T10:02:04;96382.22;;;7.30;nan
24620;BME280;12763;55.802;37.404;2023-10-08T10:04:31;96366.88;;;7.34;nan
24620;BME280;12763;55.802;37.404;2023-10-08T10:06:58;96362.47;;;7.18;nan
24620;BME280;12763;55.802;37.404;2023-10-08T10:09:25;96410.47;;;7.21;nan
24620;BME280;12763;55.802;37.404;2023-10-08T10:11:53;96358.91;;;7.23;nan
24620;BME280;12763;55.802;37.404;2023-10-08T10:14:24;96351.78;;;7.22;nan
24620;BME280;12763;55.802;37.404;2023-10-08T10:17:25;96403.88;;;7.27;nan
24620;BME280;12763;55.802;37.404;2023-10-08T10:19:55;96382.22;;;7.15;nan
24620;BME280;12763;55.802;37.404;2023-10-08T10:22:32;96378.13;;;7.18;nan
24620;BME280;12763;55.802;37.404;2023-10-08T10:25:02;96373.44;;;7.18;nan
24620;BME280;12763;55.802;37.404;2023-10-08T10:30:30;96376.72;;;6.95;nan
24620;BME280;12763;55.802;37.404;2023-10-08T10:33:00;96374.78;;;7.00;nan
24620;BME280;12763;55.802;37.404;2023-10-08T10:35:27;96381.13;;;7.16;nan
24620;BME280;12763;55.802;37.404;2023-10-08T10:37:53;96425.75;;;6.96;nan
24620;BME280;12763;55.802;37.404;2023-10-08T10:40:22;96385.09;;;6.58;nan
24620;BME280;12763;55.802;37.404;2023-10-08T10:43:08;96408.38;;;6.56;nan
24620;BME280;12763;55.802;37.404;2023-10-08T10:45:42;96399.69;;;6.74;nan
24620;BME280;12763;55.802;37.404;2023-10-08T10:48:10;96388.44;;;6.80;nan
24620;BME280;12763;55.802;37.404;2023-10-08T10:50:46;96402.50;;;7.04;nan
24620;BME280;12763;55.802;37.404;2023-10-08T10:53:38;96429.47;;;6.55;nan
24620;BME280;12763;55.802;37.404;2023-10-08T10:56:14;96412.44;;;6.43;nan
24620;BME280;12763;55.802;37.404;2023-10-08T10:59:04;96401.22;;;6.44;nan
24620;BME280;12763;55.802;37.404;2023-10-08T11:01:48;96419.72;;;6.22;nan
24620;BME280;12763;55.802;37.404;2023-10-08T11:04:19;96441.91;;;6.21;nan
24620;BME280;12763;55.802;37.404;2023-10-08T11:06:47;96416.63;;;6.04;nan
24620;BME280;12763;55.802;37.404;2023-10-08T11:09:16;96426.81;;;5.76;nan
24620;BME280;12763;55.802;37.404;2023-10-08T11:11:56;96406.31;;;6.16;nan
24620;BME280;12763;55.802;37.404;2023-10-08T11:14:25;96402.97;;;6.09;nan
24620;BME280;12763;55.802;37.404;2023-10-08T11:16:51;96410.09;;;6.10;nan
24620;BME280;12763;55.802;37.404;2023-10-08T11:19:19;96408.91;;;5.96;nan
24620;BME280;12763;55.802;37.404;2023-10-08T11:21:50;96413.72;;;5.83;nan
24620;BME280;12763;55.802;37.404;2023-10-08T11:24:33;96409.91;;;6.26;nan
24620;BME280;12763;55.802;37.404;2023-10-08T11:27:00;96409.22;;;5.99;nan
24620;BME280;12763;55.802;37.404;2023-10-08T11:29:43;96418.34;;;6.20;nan
24620;BME280;12763;55.802;37.404;2023-10-08T11:32:10;96436.63;;;6.09;nan
24620;BME280;12763;55.802;37.404;2023-10-08T11:34:41;96425.31;;;5.90;nan
24620;BME280;12763;55.802;37.404;2023-10-08T11:37:07;96438.72;;;5.92;nan
24620;BME280;12763;55.802;37.404;2023-10-08T11:39:53;96446.41;;;5.95;nan
24620;BME280;12763;55.802;37.404;2023-10-08T11:42:24;96420.44;;;6.03;nan
24620;BME280;12763;55.802;37.404;2023-10-08T11:45:03;96426.69;;;5.61;nan
24620;BME280;12763;55.802;37.404;2023-10-08T11:47:51;96445.38;;;5.74;nan
24620;BME280;12763;55.802;37.404;2023-10-08T11:50:26;96418.53;;;5.66;nan
24620;BME280;12763;55.802;37.404;2023-10-08T11:53:01;96424.28;;;5.70;nan
24620;BME280;12763;55.802;37.404;2023-10-08T11:55:37;96430.72;;;5.85;nan
24620;BME280;12763;55.802;37.404;2023-10-08T11:58:06;96418.69;;;5.86;nan
24620;BME280;12763;55.802;37.404;2023-10-08T12:00:43;96447.81;;;5.66;nan
24620;BME280;12763;55.802;37.404;2023-10-08T12:03:13;96416.97;;;5.80;nan
24620;BME280;12763;55.802;37.404;2023-10-08T12:05:47;96417.50;;;5.77;nan
24620;BME280;12763;55.802;37.404;2023-10-08T12:08:19;96423.81;;;5.78;nan
24620;BME280;12763;55.802;37.404;2023-10-08T12:10:46;96439.00;;;5.90;nan
24620;BME280;12763;55.802;37.404;2023-10-08T12:13:14;96421.50;;;5.60;nan
24620;BME280;12763;55.802;37.404;2023-10-08T12:15:44;96443.44;;;5.70;nan
24620;BME280;12763;55.802;37.404;2023-10-08T12:18:10;96431.16;;;5.72;nan
24620;BME280;12763;55.802;37.404;2023-10-08T12:20:52;96448.22;;;5.53;nan
24620;BME280;12763;55.802;37.404;2023-10-08T12:23:20;96439.50;;;5.56;nan
24620;BME280;12763;55.802;37.404;2023-10-08T12:25:54;96436.78;;;5.56;nan
24620;BME280;12763;55.802;37.404;2023-10-08T12:28:26;96446.97;;;5.33;nan
24620;BME280;12763;55.802;37.404;2023-10-08T12:30:54;96426.28;;;5.79;nan
24620;BME280;12763;55.802;37.404;2023-10-08T12:33:22;96450.19;;;5.57;nan
24620;BME280;12763;55.802;37.404;2023-10-08T12:35:57;96439.81;;;5.59;nan
24620;BME280;12763;55.802;37.404;2023-10-08T12:38:24;96440.31;;;5.51;nan
24620;BME280;12763;55.802;37.404;2023-10-08T12:40:54;96413.47;;;5.48;nan
24620;BME280;12763;55.802;37.404;2023-10-08T12:43:21;96417.13;;;5.27;nan
24620;BME280;12763;55.802;37.404;2023-10-08T12:45:48;96426.69;;;5.24;nan
24620;BME280;12763;55.802;37.404;2023-10-08T12:48:22;96412.25;;;5.34;nan
24620;BME280;12763;55.802;37.404;2023-10-08T12:50:48;96433.66;;;5.10;nan
24620;BME280;12763;55.802;37.404;2023-10-08T12:53:28;96451.22;;;5.19;nan
24620;BME280;12763;55.802;37.404;2023-10-08T12:56:05;96410.03;;;5.31;nan
24620;BME280;12763;55.802;37.404;2023-10-08T12:58:35;96426.69;;;5.24;nan
24620;BME280;12763;55.802;37.404;2023-10-08T13:01:16;96418.75;;;5.28;nan
24620;BME280;12763;55.802;37.404;2023-10-08T13:03:46;96423.63;;;5.21;nan
24620;BME280;12763;55.802;37.404;2023-10-08T13:06:20;96436.31;;;5.32;nan
24620;BME280;12763;55.802;37.404;2023-10-08T13:08:54;96440.56;;;5.18;nan
24620;BME280;12763;55.802;37.404;2023-10-08T13:11:21;96418.16;;;5.21;nan
24620;BME280;12763;55.802;37.404;2023-10-08T13:13:54;96440.38;;;5.29;nan
24620;BME280;12763;55.802;37.404;2023-10-08T13:16:27;96423.44;;;5.01;nan
24620;BME280;12763;55.802;37.404;2023-10-08T13:18:58;96441.38;;;4.92;nan
24620;BME280;12763;55.802;37.404;2023-10-08T13:21:25;96418.38;;;5.14;nan
24620;BME280;12763;55.802;37.404;2023-10-08T13:23:52;96425.03;;;4.97;nan
24620;BME280;12763;55.802;37.404;2023-10-08T13:26:18;96462.09;;;4.88;nan
24620;BME280;12763;55.802;37.404;2023-10-08T13:28:46;96416.34;;;5.00;nan
24620;BME280;12763;55.802;37.404;2023-10-08T13:31:12;96415.28;;;5.06;nan
24620;BME280;12763;55.802;37.404;2023-10-08T13:33:39;96414.69;;;4.99;nan
24620;BME280;12763;55.802;37.404;2023-10-08T13:36:09;96427.97;;;4.90;nan
24620;BME280;12763;55.802;37.404;2023-10-08T13:38:36;96425.50;;;4.89;nan
24620;BME280;12763;55.802;37.404;2023-10-08T13:41:03;96431.50;;;4.86;nan
24620;BME280;12763;55.802;37.404;2023-10-08T13:43:33;96447.97;;;4.96;nan
24620;BME280;12763;55.802;37.404;2023-10-08T13:46:04;96432.41;;;4.96;nan
24620;BME280;12763;55.802;37.404;2023-10-08T13:48:31;96424.59;;;5.05;nan
24620;BME280;12763;55.802;37.404;2023-10-08T13:51:02;96430.97;;;4.89;nan
24620;BME280;12763;55.802;37.404;2023-10-08T13:53:33;96431.03;;;4.94;nan
24620;BME280;12763;55.802;37.404;2023-10-08T13:56:02;96428.25;;;4.89;nan